• Join FlightAware (Why Join?)
  • Login
  • US Flag 
09:18AM EDT


 

Airport Tracker/Info


-or-


 

Live Flight TrackerFlight Track Log ✈ SKW6492 ✈ 03-May-2013 ✈ KDEN - KCOD

Flight Track Log - Related Links

Times and Time Zones

All times are in EDT time to prevent confusion due to time zone crossing. See the SKW6492 flight status page for this flight to view local times or setup timezone preferences in your user account.

Time Position Orientation Groundspeed Altitude Reporting Facility
EDT Latitude Longitude Course Direction KTS MPH feet Rate Location/Type
09:38PM 39.9167 -104.6833 346° North 165 190 6,700  Level Denver TRACON
09:39PM 39.9667 -104.6833 360° North 227 261 8,600 1,740 Climbing Denver TRACON
09:40PM 40.0106 -104.6672 16° North 254 292 9,600 1,980 Climbing Denver Center
09:41PM 40.2560 -104.7984 347° North  Level FlightAware Approximate
09:41PM 40.0950 -104.6706 358° North 282 325 12,000  Level Denver Center
09:42PM 40.3578 -104.8304 346° North  Level FlightAware Approximate
09:42PM 40.1778 -104.6914 349° North 298 343 14,800  Level Denver Center
09:43PM 40.4594 -104.8642 346° North  Level FlightAware Approximate
09:43PM 40.2681 -104.7158 348° North 308 354 17,100  Level Denver Center
09:44PM 40.3519 -104.7383 348° North 305 351 18,600 1,200 Climbing Denver Center
09:45PM 40.4569 -104.7636 350° North 358 412 19,600 1,020 Climbing Denver Center
09:46PM 40.5539 -104.7906 348° North 360 414 20,800 1,200 Climbing Denver Center
09:47PM 40.6622 -104.8186 349° North 363 418 22,200 1,200 Climbing Denver Center
09:48PM 40.7606 -104.8425 350° North 356 410 23,300 1,080 Climbing Denver Center
09:49PM 40.8614 -104.8864 342° North 378 435 24,500 780 Climbing Denver Center
09:50PM 40.9639 -104.9381 339° North 389 448 25,000 600 Climbing Denver Center
09:51PM 41.0692 -104.9883 340° North 397 457 25,800 660 Climbing Denver Center
09:52PM 41.1897 -105.0453 340° North 408 470 26,400 540 Climbing Denver Center
09:53PM 41.2933 -105.0983 339° North 414 476 27,000 720 Climbing Denver Center
09:54PM 41.4133 -105.1606 339° North 414 476 27,900 780 Climbing Denver Center
09:55PM 41.5150 -105.2100 340° North 408 470 28,700 780 Climbing Denver Center
09:56PM 41.6208 -105.2967 329° Northwest 402 463 29,600 720 Climbing Denver Center
09:57PM 41.6897 -105.3719 321° Northwest 399 459 30,200 720 Climbing Denver Center
09:58PM 41.7992 -105.4897 321° Northwest 396 456 31,200 840 Climbing Denver Center
09:59PM 41.8825 -105.5772 322° Northwest 397 457 32,000 360 Climbing Denver Center
10:00PM 41.9778 -105.6839 320° Northwest 400 460 32,000  Level Denver Center
10:02PM 42.0625 -105.7758 321° Northwest 406 467 32,000  Level Denver Center
10:03PM 42.1783 -105.9047 321° Northwest 421 484 32,000  Level Denver Center
10:04PM 42.2667 -106.0033 320° Northwest 429 494 32,000  Level Denver Center
10:05PM 42.3722 -106.1211 321° Northwest 437 503 32,000  Level Denver Center
10:06PM 42.4650 -106.2219 321° Northwest 443 510 32,000  Level Denver Center
10:07PM 42.5706 -106.3419 320° Northwest 443 510 32,000  Level Denver Center
10:08PM 42.6625 -106.4447 321° Northwest 444 511 32,000  Level Denver Center
10:09PM 42.7536 -106.5469 321° Northwest 443 510 32,000  Level Denver Center
10:10PM 42.8600 -106.6689 320° Northwest 448 516 32,000  Level Denver Center
10:11PM 42.9506 -106.7700 321° Northwest 442 509 32,000  Level Denver Center
10:12PM 43.0558 -106.8933 319° Northwest 447 514 32,000  Level Denver Center
10:13PM 43.1550 -107.0056 320° Northwest 441 507 32,000  Level Denver Center
10:13PM 43.1992 -107.0592 319° Northwest 440 506 32,000  Level Salt Lake Center
10:15PM 43.3058 -107.1814 320° Northwest 446 513 32,000  Level Salt Lake Center
10:15PM 43.3511 -107.2342 320° Northwest 443 510 32,000  Level Denver Center
10:16PM 43.3961 -107.2872 319° Northwest 445 512 32,000  Level Salt Lake Center
10:17PM 43.4853 -107.3944 319° Northwest 444 511 32,000  Level Salt Lake Center
10:18PM 43.5903 -107.5178 320° Northwest 444 511 32,000 -540 Level Salt Lake Center
10:19PM 43.6811 -107.6242 320° Northwest 446 513 30,900 -1,980 Descending Salt Lake Center
10:20PM 43.7847 -107.7425 321° Northwest 435 501 28,000 -2,640 Descending Salt Lake Center
10:21PM 43.8706 -107.8439 320° Northwest 426 490 25,600 -2,280 Descending Salt Lake Center
10:22PM 43.9525 -107.9450 318° Northwest 417 480 23,400 -2,280 Descending Salt Lake Center
10:23PM 44.0375 -108.0578 316° Northwest 387 445 21,000 -2,160 Descending Salt Lake Center
10:24PM 44.1039 -108.1628 311° West 378 435 19,000 -2,040 Descending Salt Lake Center
10:25PM 44.1819 -108.2825 312° West 376 433 16,800 -2,100 Descending Salt Lake Center
10:26PM 44.2408 -108.3739 312° West 357 411 14,800 -1,380 Descending Salt Lake Center
10:27PM 44.3014 -108.4361 324° Northwest 319 367 14,000 -420 Descending Salt Lake Center
10:28PM 44.3772 -108.3939 22° Northeast 273 314 14,000  Level Salt Lake Center
10:29PM 44.4411 -108.3564 23° Northeast 262 302 14,000  Level Salt Lake Center
10:30PM 44.5194 -108.3181 19° North 264 304 14,000  Level Salt Lake Center
10:31PM 44.5883 -108.2861 18° North 267 307 14,000  Level Salt Lake Center
10:32PM 44.6572 -108.2600 15° North 267 307 14,000 -480 Level Salt Lake Center
10:33PM 44.7058 -108.3333 313° West 257 296 13,100 -1,320 Descending Salt Lake Center
10:34PM 44.6983 -108.4264 264° West 251 289 11,400 -1,800 Descending Salt Lake Center
10:35PM 44.6881 -108.5331 262° West 248 285 9,500 -1,200 Descending Salt Lake Center
10:36PM 44.6789 -108.6231 262° West 247 284 9,000 -300 Descending Salt Lake Center
10:37PM 44.6706 -108.7097 262° West 241 277 9,000 -360 Level Salt Lake Center
10:38PM 44.6483 -108.7917 249° West 219 252 8,300 -780 Descending Salt Lake Center
10:39PM 44.6167 -108.8553 235° Southwest 212 244 7,500 -420 Descending Salt Lake Center
10:40PM 44.5717 -108.9186 225° Southwest 206 237 7,500 -300 Level Salt Lake Center
10:41PM 44.5283 -108.9628 216° Southwest 201 231 6,900 -600 Descending Salt Lake Center